Grant, Colorado
Current Conditions -  °F | °C
As of 3:50 AM on Monday 20 Oct 2014 (Local Time) from K0CO Reporting Station
Clear Clear  
Wind Chill: 25°   Ceiling: Unl
Heat Index: 32°   Visibility: 10mi
Dew Point: 28°   Wind: 8mph
Humidity: 87%   Direction: 250°WSW
Pressure: 30.5"   Gusts: NA
Location:  39.46°N, 105.66°W
Report Text: K0CO 200950Z AUTO 25007KT 10SM CLR 00/M02 A3050 RMK AO2
Loading
Personal Weather Stations






























Interactive Weather Map
Tropical Storm Tracking
New forecast layout! Learn more

10-Day Weather Forecast

Advertisements
Track Severe Weather on mobile